Time;durP1;ratioP1;P1;durP2;ratioP2;P2;SDS_P1;SDS_P2;PMS_P1;PMS_P2;Temp;Humidity;BMP_temperature;BMP_pressure;BME280_temperature;BME280_humidity;BME280_pressure;Samples;Min_cycle;Max_cycle;Signal;HPM_P1;HPM_P2
2023/09/19 00:01:12;;;;;;;5.93;3.65;;;16.70;99.90;;;;;;5062482;28;20516;-76
2023/09/19 00:03:38;;;;;;;9.73;3.45;;;16.70;99.90;;;;;;5064228;28;20017;-75
2023/09/19 00:06:05;;;;;;;10.10;4.10;;;16.70;99.90;;;;;;5063832;28;20028;-73
2023/09/19 00:08:31;;;;;;;10.40;3.33;;;16.60;99.90;;;;;;5061986;28;20028;-74
2023/09/19 00:11:01;;;;;;;9.02;3.25;;;16.60;99.90;;;;;;5063615;28;20021;-74
2023/09/19 00:13:28;;;;;;;9.23;3.45;;;16.60;99.90;;;;;;5063540;28;20025;-71
2023/09/19 00:15:55;;;;;;;10.35;3.75;;;16.60;99.90;;;;;;5063590;28;20020;-73
2023/09/19 00:18:21;;;;;;;12.27;3.90;;;16.60;99.90;;;;;;5062275;28;20029;-73
2023/09/19 00:20:51;;;;;;;11.00;3.90;;;16.60;99.90;;;;;;5062543;28;20036;-73
2023/09/19 00:23:17;;;;;;;8.77;3.47;;;16.60;99.90;;;;;;5061872;28;20655;-73
2023/09/19 00:25:42;;;;;;;11.10;3.78;;;16.60;99.90;;;;;;5062563;28;20043;-73
2023/09/19 00:28:09;;;;;;;8.35;3.92;;;16.60;99.90;;;;;;5062237;28;20069;-74
2023/09/19 00:30:35;;;;;;;9.55;3.63;;;16.60;99.90;;;;;;5063343;28;20025;-74
2023/09/19 00:33:01;;;;;;;8.70;3.42;;;16.50;99.90;;;;;;5062003;28;20675;-75
2023/09/19 00:35:27;;;;;;;7.57;3.65;;;16.50;99.90;;;;;;5062988;28;20044;-75
2023/09/19 00:37:53;;;;;;;10.63;3.55;;;16.50;99.90;;;;;;5063292;28;20024;-76
2023/09/19 00:40:21;;;;;;;9.05;3.72;;;16.50;99.90;;;;;;5062186;28;20049;-72
2023/09/19 00:42:48;;;;;;;12.75;3.47;;;16.50;99.90;;;;;;5062886;28;20029;-75
2023/09/19 00:45:16;;;;;;;7.72;3.03;;;16.50;99.90;;;;;;5062847;28;20017;-74
2023/09/19 00:47:48;;;;;;;8.18;3.25;;;16.50;99.90;;;;;;5061728;28;20387;-73
2023/09/19 00:50:17;;;;;;;9.77;3.70;;;16.40;99.90;;;;;;5061459;28;20041;-75
2023/09/19 00:52:43;;;;;;;13.48;3.20;;;16.40;99.90;;;;;;5061915;28;20139;-75
2023/09/19 00:55:14;;;;;;;7.22;3.20;;;16.40;99.90;;;;;;5061753;28;20044;-75
2023/09/19 00:57:40;;;;;;;7.03;3.42;;;16.40;99.90;;;;;;5061755;28;20021;-75
2023/09/19 01:00:11;;;;;;;7.80;2.92;;;16.30;99.90;;;;;;5063166;28;20045;-73
2023/09/19 01:02:37;;;;;;;7.07;2.85;;;16.30;99.90;;;;;;5061682;28;20025;-72
2023/09/19 01:05:04;;;;;;;7.40;3.17;;;16.30;99.90;;;;;;5062038;28;20025;-74
2023/09/19 01:07:31;;;;;;;8.35;2.60;;;16.30;99.90;;;;;;5061376;28;20040;-73
2023/09/19 01:10:09;;;;;;;6.75;2.92;;;16.30;99.90;;;;;;5062505;28;20108;-74
2023/09/19 01:12:56;;;;;;;9.55;2.80;;;16.20;99.90;;;;;;5061263;28;20037;-74
2023/09/19 01:15:35;;;;;;;7.85;2.78;;;16.20;99.90;;;;;;5062203;28;20036;-73
2023/09/19 01:18:14;;;;;;;6.32;2.58;;;16.20;99.90;;;;;;5060886;28;20027;-73
2023/09/19 01:21:05;;;;;;;7.70;2.58;;;16.20;99.90;;;;;;5062316;28;20033;-74
2023/09/19 01:24:05;;;;;;;5.95;2.30;;;16.20;99.90;;;;;;5061478;28;20052;-74
2023/09/19 01:26:53;;;;;;;7.57;2.38;;;16.20;99.90;;;;;;5062489;28;20033;-76
2023/09/19 01:29:32;;;;;;;6.97;2.38;;;16.20;99.90;;;;;;5062252;28;20029;-74
2023/09/19 01:32:03;;;;;;;12.60;3.05;;;16.20;99.90;;;;;;5061598;28;20021;-75
2023/09/19 01:34:50;;;;;;;8.93;2.42;;;16.20;99.90;;;;;;5062224;28;20689;-77
2023/09/19 01:37:20;;;;;;;8.82;2.10;;;16.20;99.90;;;;;;5060639;28;20028;-73
2023/09/19 01:39:52;;;;;;;6.47;2.50;;;16.20;99.90;;;;;;5061332;28;20041;-76
2023/09/19 01:42:39;;;;;;;8.80;2.80;;;16.20;99.90;;;;;;5061953;28;20048;-72
2023/09/19 01:45:19;;;;;;;6.65;2.35;;;16.20;99.90;;;;;;5062559;28;20118;-74
2023/09/19 01:47:56;;;;;;;8.23;2.80;;;16.10;99.90;;;;;;5061531;28;20055;-73
2023/09/19 01:50:43;;;;;;;6.32;2.58;;;16.10;99.90;;;;;;5061572;28;20029;-74
2023/09/19 01:53:33;;;;;;;8.68;2.70;;;16.10;99.90;;;;;;5060804;28;20037;-77
2023/09/19 01:56:01;;;;;;;7.05;2.83;;;16.10;99.90;;;;;;5060155;28;20041;-76
2023/09/19 01:58:26;;;;;;;11.43;3.20;;;16.10;99.90;;;;;;5061854;28;20530;-74
2023/09/19 02:00:54;;;;;;;8.45;3.05;;;16.00;99.90;;;;;;5061303;28;20040;-78
2023/09/19 02:03:25;;;;;;;11.10;3.33;;;16.00;99.90;;;;;;5060804;28;20063;-73
2023/09/19 02:05:53;;;;;;;7.00;2.40;;;16.00;99.90;;;;;;5061514;28;20021;-73
2023/09/19 02:08:19;;;;;;;9.20;2.20;;;16.00;99.90;;;;;;5061120;28;20017;-74
2023/09/19 02:10:48;;;;;;;6.97;2.20;;;15.90;99.90;;;;;;5061629;28;20021;-77
2023/09/19 02:13:22;;;;;;;5.22;2.15;;;15.90;99.90;;;;;;5061408;28;20054;-76
2023/09/19 02:15:47;;;;;;;6.30;2.23;;;15.90;99.90;;;;;;5060068;28;20033;-75
2023/09/19 02:18:14;;;;;;;6.82;2.28;;;15.90;99.90;;;;;;5060341;28;20834;-75
2023/09/19 02:20:40;;;;;;;8.45;2.42;;;15.80;99.90;;;;;;5061404;28;20482;-74
2023/09/19 02:23:07;;;;;;;6.93;2.15;;;15.80;99.90;;;;;;5061852;28;20039;-74
2023/09/19 02:25:33;;;;;;;6.00;2.17;;;15.80;99.90;;;;;;5060376;28;20025;-74
2023/09/19 02:27:59;;;;;;;6.88;2.10;;;15.70;99.90;;;;;;5061221;28;20040;-75
2023/09/19 02:30:25;;;;;;;4.68;2.00;;;15.70;99.90;;;;;;5059971;28;20017;-74
2023/09/19 02:32:51;;;;;;;4.07;1.80;;;15.60;99.90;;;;;;5061678;28;20084;-76
2023/09/19 02:35:19;;;;;;;6.82;1.70;;;15.60;99.90;;;;;;5059679;28;20079;-74
2023/09/19 02:37:46;;;;;;;4.63;1.60;;;15.50;99.90;;;;;;5061714;28;20094;-71
2023/09/19 02:40:25;;;;;;;5.88;1.92;;;15.50;99.90;;;;;;5060600;28;20033;-75
2023/09/19 02:42:55;;;;;;;6.95;1.88;;;15.40;99.90;;;;;;5061288;28;20035;-76
2023/09/19 02:45:20;;;;;;;6.30;1.88;;;15.40;99.90;;;;;;5060635;28;20035;-74
2023/09/19 02:47:47;;;;;;;4.00;1.52;;;15.30;99.90;;;;;;5061206;28;20084;-73
2023/09/19 02:50:15;;;;;;;6.80;1.42;;;15.30;99.90;;;;;;5061225;28;20029;-76
2023/09/19 02:52:48;;;;;;;3.88;1.60;;;15.30;99.90;;;;;;5061557;28;20439;-73
2023/09/19 02:55:17;;;;;;;5.68;1.63;;;15.20;99.90;;;;;;5061237;28;20143;-73
2023/09/19 02:57:50;;;;;;;7.75;1.98;;;15.10;99.90;;;;;;5059803;28;20510;-74
2023/09/19 03:00:21;;;;;;;4.57;1.37;;;15.10;99.90;;;;;;5061541;28;20055;-73
2023/09/19 03:02:51;;;;;;;7.57;1.60;;;15.10;99.90;;;;;;5060266;28;20029;-76
2023/09/19 03:05:17;;;;;;;9.43;1.80;;;15.00;99.90;;;;;;5059417;28;20033;-71
2023/09/19 03:07:45;;;;;;;7.40;1.73;;;15.00;99.90;;;;;;5060995;28;20040;-75
2023/09/19 03:10:11;;;;;;;7.07;1.83;;;15.00;99.90;;;;;;5063137;28;20055;-74
2023/09/19 03:12:37;;;;;;;6.80;1.85;;;14.90;99.90;;;;;;5063873;28;20421;-73
2023/09/19 03:15:04;;;;;;;7.25;1.80;;;14.90;99.90;;;;;;5065209;28;20021;-74
2023/09/19 03:17:30;;;;;;;5.60;1.70;;;14.80;99.90;;;;;;5064647;28;20028;-74
2023/09/19 03:19:57;;;;;;;7.90;2.08;;;14.80;99.90;;;;;;5064732;28;20037;-74
2023/09/19 03:22:22;;;;;;;10.45;2.13;;;14.80;99.90;;;;;;5064693;28;20024;-74
2023/09/19 03:24:48;;;;;;;11.85;2.05;;;14.70;99.90;;;;;;5063063;28;20017;-74
2023/09/19 03:27:13;;;;;;;6.90;1.98;;;14.70;99.90;;;;;;5065063;28;20074;-71
2023/09/19 03:29:39;;;;;;;10.23;2.03;;;14.70;99.90;;;;;;5064493;28;20025;-75
2023/09/19 03:32:05;;;;;;;14.02;2.53;;;14.60;99.90;;;;;;5064689;28;20466;-73
2023/09/19 03:34:31;;;;;;;9.13;2.10;;;14.60;99.90;;;;;;5063237;28;20029;-73
2023/09/19 03:36:57;;;;;;;9.18;2.30;;;14.60;99.90;;;;;;5063451;28;20021;-74
2023/09/19 03:39:23;;;;;;;11.88;2.03;;;14.60;99.90;;;;;;5064459;28;20093;-76
2023/09/19 03:41:49;;;;;;;9.38;2.20;;;14.50;99.90;;;;;;5063430;28;20565;-76
2023/09/19 03:44:15;;;;;;;5.85;1.88;;;14.50;99.90;;;;;;5063012;28;20043;-75
2023/09/19 03:46:41;;;;;;;8.02;2.00;;;14.50;99.90;;;;;;5064268;28;20025;-75
2023/09/19 03:49:06;;;;;;;14.10;2.40;;;14.40;99.90;;;;;;5063055;28;20029;-72
2023/09/19 03:51:34;;;;;;;9.43;2.50;;;14.40;99.90;;;;;;5063067;28;20064;-73
2023/09/19 03:54:00;;;;;;;8.52;2.13;;;14.40;99.90;;;;;;5064189;28;20936;-74
2023/09/19 03:56:25;;;;;;;7.18;2.40;;;14.40;99.90;;;;;;5062604;28;20040;-73
2023/09/19 03:58:51;;;;;;;10.27;2.10;;;14.40;99.90;;;;;;5063834;28;20017;-73
2023/09/19 04:01:18;;;;;;;10.10;2.28;;;14.30;99.90;;;;;;5064245;28;20041;-74
2023/09/19 04:03:47;;;;;;;12.93;2.30;;;14.40;99.90;;;;;;5062393;28;20087;-74
2023/09/19 04:06:16;;;;;;;10.57;2.22;;;14.30;99.90;;;;;;5062907;28;20029;-73
2023/09/19 04:08:43;;;;;;;12.15;2.65;;;14.30;99.90;;;;;;5063971;28;20028;-73
2023/09/19 04:11:10;;;;;;;11.48;2.90;;;14.30;99.90;;;;;;5063600;28;20040;-72
2023/09/19 04:13:36;;;;;;;9.35;2.65;;;14.30;99.90;;;;;;5062681;28;20028;-71
2023/09/19 04:16:03;;;;;;;9.77;2.10;;;14.30;99.90;;;;;;5061907;28;20017;-77
2023/09/19 04:18:32;;;;;;;12.27;2.50;;;14.20;99.90;;;;;;5063919;28;20020;-72
2023/09/19 04:20:58;;;;;;;13.93;2.80;;;14.20;99.90;;;;;;5062911;28;20076;-72
2023/09/19 04:23:24;;;;;;;9.48;2.20;;;14.20;99.90;;;;;;5061963;28;20516;-72
2023/09/19 04:25:50;;;;;;;10.63;2.40;;;14.20;99.90;;;;;;5063334;28;20063;-76
2023/09/19 04:28:16;;;;;;;13.85;2.90;;;14.20;99.90;;;;;;5063763;28;20029;-72
2023/09/19 04:30:41;;;;;;;8.15;2.17;;;14.20;99.90;;;;;;5063343;28;20100;-74
2023/09/19 04:33:08;;;;;;;10.32;2.65;;;14.30;99.90;;;;;;5063761;28;20032;-74
2023/09/19 04:35:34;;;;;;;9.65;2.40;;;14.20;99.90;;;;;;5063507;28;20079;-75
2023/09/19 04:38:01;;;;;;;8.07;2.03;;;14.20;99.90;;;;;;5063126;28;20103;-73
2023/09/19 04:40:26;;;;;;;8.95;2.25;;;14.20;99.90;;;;;;5063339;28;20964;-73
2023/09/19 04:42:58;;;;;;;9.82;2.38;;;14.20;99.90;;;;;;5061442;28;20020;-73
2023/09/19 04:45:28;;;;;;;7.18;2.10;;;14.20;99.90;;;;;;5063192;28;20484;-73
2023/09/19 04:47:54;;;;;;;12.82;2.33;;;14.20;99.90;;;;;;5062511;28;20083;-75
2023/09/19 04:50:21;;;;;;;8.95;2.63;;;14.20;99.90;;;;;;5061870;28;20021;-74
2023/09/19 04:52:50;;;;;;;12.80;2.47;;;14.20;99.90;;;;;;5063317;28;20021;-75
2023/09/19 04:55:18;;;;;;;11.40;2.42;;;14.20;99.90;;;;;;5062592;28;20019;-72
2023/09/19 04:57:48;;;;;;;9.20;2.08;;;14.20;99.90;;;;;;5063237;28;20403;-75
2023/09/19 05:00:16;;;;;;;10.02;2.13;;;14.20;99.90;;;;;;5061866;28;20092;-84
2023/09/19 05:02:42;;;;;;;10.98;2.30;;;14.20;99.90;;;;;;5061200;28;20025;-74
2023/09/19 05:05:10;;;;;;;14.30;3.60;;;14.20;99.90;;;;;;5062988;28;20029;-76
2023/09/19 05:07:37;;;;;;;14.30;2.65;;;14.20;99.90;;;;;;5061759;28;20021;-73
2023/09/19 05:10:07;;;;;;;9.60;2.28;;;14.20;99.90;;;;;;5059383;28;20036;-75
2023/09/19 05:12:34;;;;;;;10.45;2.70;;;14.20;99.90;;;;;;5062768;28;20079;-73
2023/09/19 05:15:01;;;;;;;11.60;2.50;;;14.20;99.90;;;;;;5061244;28;20071;-77
2023/09/19 05:17:27;;;;;;;15.45;2.65;;;14.20;99.90;;;;;;5061641;28;20013;-74
2023/09/19 05:19:52;;;;;;;7.43;2.50;;;14.20;99.90;;;;;;5058835;28;20045;-76
2023/09/19 05:22:18;;;;;;;11.88;2.45;;;14.20;99.90;;;;;;5062268;28;20033;-72
2023/09/19 05:24:47;;;;;;;13.25;2.75;;;14.20;99.90;;;;;;5062552;28;20023;-73
2023/09/19 05:27:16;;;;;;;11.43;2.05;;;14.20;99.90;;;;;;5061451;28;20048;-72
2023/09/19 05:29:44;;;;;;;15.20;3.08;;;14.20;99.90;;;;;;5061727;28;20021;-71
2023/09/19 05:32:11;;;;;;;10.38;2.70;;;14.20;99.90;;;;;;5060201;28;20028;-72
2023/09/19 05:34:38;;;;;;;15.20;2.63;;;14.30;99.90;;;;;;5062100;28;20025;-73
2023/09/19 05:37:06;;;;;;;13.15;2.55;;;14.30;99.90;;;;;;5062014;28;20029;-73
2023/09/19 05:39:33;;;;;;;14.52;3.67;;;14.30;99.90;;;;;;5062011;28;20442;-72
2023/09/19 05:42:00;;;;;;;12.48;3.00;;;14.30;99.90;;;;;;5062229;28;20741;-74
2023/09/19 05:44:25;;;;;;;10.48;2.78;;;14.30;99.90;;;;;;5061887;28;20021;-72
2023/09/19 05:46:51;;;;;;;8.60;2.80;;;14.40;99.90;;;;;;5061499;28;20035;-74
2023/09/19 05:49:17;;;;;;;15.77;3.08;;;14.40;99.90;;;;;;5060688;28;20025;-73
2023/09/19 05:51:43;;;;;;;12.70;2.63;;;14.40;99.90;;;;;;5060071;28;20025;-70
2023/09/19 05:54:10;;;;;;;11.45;2.55;;;14.50;99.90;;;;;;5062064;28;20027;-71
2023/09/19 05:56:36;;;;;;;14.13;2.83;;;14.40;99.90;;;;;;5061776;28;20025;-73
2023/09/19 05:59:03;;;;;;;11.43;2.67;;;14.50;99.90;;;;;;5060078;28;21594;-72
2023/09/19 06:01:30;;;;;;;10.35;2.85;;;14.50;99.90;;;;;;5060267;28;20037;-72
2023/09/19 06:04:00;;;;;;;12.88;3.45;;;14.50;99.90;;;;;;5061501;28;20029;-72
2023/09/19 06:06:26;;;;;;;15.10;2.88;;;14.50;99.90;;;;;;5059975;28;20389;-70
2023/09/19 06:08:51;;;;;;;17.35;2.92;;;14.50;99.90;;;;;;5060505;28;20040;-70
2023/09/19 06:11:20;;;;;;;10.02;2.75;;;14.60;99.90;;;;;;5061583;28;20025;-70
2023/09/19 06:13:47;;;;;;;10.18;3.20;;;14.60;99.90;;;;;;5061562;28;20060;-72
2023/09/19 06:16:13;;;;;;;10.63;2.97;;;14.60;99.90;;;;;;5061550;28;20017;-74
2023/09/19 06:18:39;;;;;;;14.32;2.72;;;14.60;99.90;;;;;;5061275;28;20029;-74
2023/09/19 06:21:07;;;;;;;14.43;3.25;;;14.60;99.90;;;;;;5061689;28;20045;-75
2023/09/19 06:23:34;;;;;;;13.45;2.67;;;14.60;99.90;;;;;;5061827;28;20139;-72
2023/09/19 06:26:00;;;;;;;11.50;2.72;;;14.60;99.90;;;;;;5061288;28;20025;-73
2023/09/19 06:28:28;;;;;;;10.38;2.97;;;14.60;99.90;;;;;;5060131;28;20040;-75
2023/09/19 06:30:54;;;;;;;12.02;2.65;;;14.60;99.90;;;;;;5060274;28;20025;-73
2023/09/19 06:33:21;;;;;;;10.85;3.15;;;14.70;99.90;;;;;;5060569;28;20043;-73
2023/09/19 06:35:47;;;;;;;13.07;2.95;;;14.70;99.90;;;;;;5061114;28;20076;-73
2023/09/19 06:38:15;;;;;;;17.23;3.25;;;14.70;99.90;;;;;;5061884;28;20024;-72
2023/09/19 06:40:42;;;;;;;14.55;2.95;;;14.70;99.90;;;;;;5061408;28;20072;-74
2023/09/19 06:43:10;;;;;;;18.15;3.55;;;14.70;99.90;;;;;;5065292;28;20016;-71
2023/09/19 06:45:35;;;;;;;15.50;3.42;;;14.70;99.90;;;;;;5067303;28;20025;-74
2023/09/19 06:48:02;;;;;;;11.80;2.80;;;14.70;99.90;;;;;;5067447;28;20062;-74
2023/09/19 06:50:32;;;;;;;11.55;2.70;;;14.80;99.90;;;;;;5066062;28;20093;-71
2023/09/19 06:52:59;;;;;;;15.20;3.17;;;14.80;99.90;;;;;;5066407;28;20040;-73
2023/09/19 06:55:27;;;;;;;11.77;3.00;;;14.80;99.90;;;;;;5066123;28;20025;-73
2023/09/19 06:57:57;;;;;;;16.08;2.75;;;14.70;99.90;;;;;;5068089;28;20112;-72
2023/09/19 07:00:23;;;;;;;15.35;3.25;;;14.70;99.90;;;;;;5066157;28;20041;-73
2023/09/19 07:03:16;;;;;;;11.73;2.50;;;14.70;99.90;;;;;;5067562;28;20768;-72
2023/09/19 07:05:42;;;;;;;10.07;2.97;;;14.70;99.90;;;;;;5067150;28;20033;-73
2023/09/19 07:08:12;;;;;;;18.52;3.15;;;14.70;99.90;;;;;;5066528;28;20037;-74
2023/09/19 07:10:48;;;;;;;16.88;3.00;;;14.60;99.90;;;;;;5067699;28;20039;-73
2023/09/19 07:13:14;;;;;;;10.60;3.00;;;14.60;99.90;;;;;;5067601;28;20049;-73
2023/09/19 07:15:46;;;;;;;18.23;2.97;;;14.60;99.90;;;;;;5065830;28;20386;-72
2023/09/19 07:18:14;;;;;;;14.88;3.30;;;14.60;99.90;;;;;;5067728;28;20044;-70
2023/09/19 07:20:49;;;;;;;13.57;3.42;;;14.60;99.90;;;;;;5066477;28;20392;-72
2023/09/19 07:23:19;;;;;;;14.25;2.65;;;14.60;99.90;;;;;;5066472;28;20017;-72
2023/09/19 07:25:46;;;;;;;12.45;2.55;;;14.60;99.90;;;;;;5066069;28;20036;-72
2023/09/19 07:28:13;;;;;;;15.10;3.00;;;14.60;99.90;;;;;;5066959;28;20025;-72
2023/09/19 07:30:39;;;;;;;12.80;2.92;;;14.60;99.90;;;;;;5067113;28;20021;-73
2023/09/19 07:33:05;;;;;;;12.63;2.75;;;14.70;99.90;;;;;;5067659;28;20029;-69
2023/09/19 07:35:32;;;;;;;21.63;2.72;;;14.70;99.90;;;;;;5065792;28;20055;-73
2023/09/19 07:37:58;;;;;;;12.90;2.83;;;14.80;99.90;;;;;;5065975;28;20079;-74
2023/09/19 07:40:26;;;;;;;14.68;2.95;;;14.90;99.90;;;;;;5067546;28;20127;-71
2023/09/19 07:42:52;;;;;;;12.07;2.28;;;15.00;99.90;;;;;;5066357;28;20520;-71
2023/09/19 07:45:18;;;;;;;12.45;2.42;;;15.00;99.90;;;;;;5067672;28;20025;-73
2023/09/19 07:47:48;;;;;;;14.75;3.30;;;15.10;99.90;;;;;;5067823;28;20402;-70
2023/09/19 07:50:15;;;;;;;14.98;2.78;;;15.20;99.90;;;;;;5067137;28;20047;-71
2023/09/19 07:52:42;;;;;;;12.73;2.25;;;15.30;99.90;;;;;;5067853;28;20527;-71
2023/09/19 07:55:09;;;;;;;15.63;2.88;;;15.40;99.90;;;;;;5064699;28;20021;-72
2023/09/19 07:57:35;;;;;;;12.70;2.67;;;15.40;99.90;;;;;;5064330;28;20033;-70
2023/09/19 08:00:04;;;;;;;14.73;2.97;;;15.50;99.90;;;;;;5064425;28;20032;-69
2023/09/19 08:02:30;;;;;;;11.63;2.58;;;15.50;99.90;;;;;;5063956;28;20047;-72
2023/09/19 08:04:58;;;;;;;12.75;2.72;;;15.60;99.90;;;;;;5062611;28;20053;-73
2023/09/19 08:07:24;;;;;;;14.05;2.85;;;15.60;99.90;;;;;;5063928;28;20084;-70
2023/09/19 08:09:49;;;;;;;11.95;2.20;;;15.70;99.90;;;;;;5064061;28;20021;-71
2023/09/19 08:12:15;;;;;;;16.17;2.83;;;15.90;99.90;;;;;;5062831;28;20051;-72
2023/09/19 08:14:43;;;;;;;10.55;2.67;;;16.00;99.90;;;;;;5063784;28;20017;-72
2023/09/19 08:17:09;;;;;;;14.68;3.00;;;16.00;99.90;;;;;;5063179;28;20139;-72
2023/09/19 08:19:36;;;;;;;12.90;2.30;;;16.10;99.90;;;;;;5063691;28;20086;-72
2023/09/19 08:22:02;;;;;;;16.67;2.83;;;16.20;99.90;;;;;;5062911;28;20029;-73
2023/09/19 08:24:29;;;;;;;14.75;2.40;;;16.30;99.90;;;;;;5063304;28;20021;-74
2023/09/19 08:26:56;;;;;;;13.73;2.15;;;16.30;99.90;;;;;;5063205;28;20413;-71
2023/09/19 08:29:27;;;;;;;12.73;2.53;;;16.30;99.90;;;;;;5063660;28;20021;-71
2023/09/19 08:31:59;;;;;;;16.35;2.30;;;16.30;99.90;;;;;;5062545;28;20366;-73
2023/09/19 08:34:25;;;;;;;11.48;2.58;;;16.30;99.90;;;;;;5061622;28;20021;-73
2023/09/19 08:36:58;;;;;;;14.82;2.80;;;16.30;99.90;;;;;;5062826;28;20039;-73
2023/09/19 08:39:24;;;;;;;17.52;2.63;;;16.20;99.90;;;;;;5059999;28;20055;-71
2023/09/19 08:41:56;;;;;;;8.35;2.35;;;16.30;99.90;;;;;;5061405;28;20021;-72
2023/09/19 08:44:22;;;;;;;8.80;1.83;;;16.20;99.90;;;;;;5062761;28;20029;-72
2023/09/19 08:46:53;;;;;;;16.58;2.35;;;16.30;99.90;;;;;;5060398;28;20122;-74
2023/09/19 08:49:30;;;;;;;13.93;3.05;;;16.40;99.90;;;;;;5060858;28;20040;-72
2023/09/19 08:52:25;;;;;;;8.20;2.10;;;16.50;99.90;;;;;;5060544;28;20029;-70
2023/09/19 08:54:55;;;;;;;8.57;1.95;;;16.60;99.90;;;;;;5062242;28;20025;-71
2023/09/19 08:57:22;;;;;;;12.27;2.72;;;16.70;99.90;;;;;;5062453;28;20029;-73
2023/09/19 08:59:49;;;;;;;13.00;2.10;;;16.90;99.90;;;;;;5062729;28;20029;-73
2023/09/19 09:02:17;;;;;;;14.05;2.58;;;16.90;99.90;;;;;;5060733;28;20029;-73
2023/09/19 09:04:43;;;;;;;12.73;2.40;;;17.00;99.90;;;;;;5062237;28;20036;-71
2023/09/19 09:07:13;;;;;;;9.15;2.17;;;17.10;99.90;;;;;;5061884;28;20081;-74
2023/09/19 09:09:43;;;;;;;9.75;2.40;;;17.10;99.90;;;;;;5055649;28;20040;-74
2023/09/19 09:12:15;;;;;;;11.93;2.10;;;17.10;99.90;;;;;;5060726;28;20090;-73
2023/09/19 09:14:44;;;;;;;11.70;2.13;;;17.10;99.90;;;;;;5062301;28;20021;-74
2023/09/19 09:17:10;;;;;;;19.48;2.55;;;17.10;99.90;;;;;;5062892;28;20028;-75
2023/09/19 09:19:37;;;;;;;15.45;2.47;;;17.00;99.90;;;;;;5062061;28;20082;-73
2023/09/19 09:22:11;;;;;;;16.38;2.60;;;17.00;99.90;;;;;;5062486;28;20047;-71
2023/09/19 09:24:50;;;;;;;15.68;2.67;;;17.00;99.90;;;;;;5062870;28;20032;-72
2023/09/19 09:27:16;;;;;;;13.32;2.95;;;17.00;99.90;;;;;;5062199;28;20389;-72
2023/09/19 09:29:49;;;;;;;13.27;2.75;;;17.20;99.90;;;;;;5061012;28;20135;-72
2023/09/19 09:32:28;;;;;;;8.48;2.30;;;17.20;99.90;;;;;;5061487;28;20387;-70
2023/09/19 09:34:59;;;;;;;10.70;2.15;;;17.40;99.90;;;;;;5061205;28;20049;-69
2023/09/19 09:37:28;;;;;;;11.50;2.83;;;17.50;99.90;;;;;;5060264;28;20071;-72
2023/09/19 09:42:46;;;;;;;17.65;5.13;;;17.70;99.90;;;;;;5062159;28;20096;-72
2023/09/19 09:45:48;;;;;;;16.08;7.03;;;17.70;99.90;;;;;;5061907;28;20119;-73
2023/09/19 09:48:15;;;;;;;15.25;3.50;;;17.60;99.90;;;;;;5061484;28;20080;-73
2023/09/19 09:50:56;;;;;;;18.58;4.93;;;17.50;99.90;;;;;;5062423;28;20024;-71
2023/09/19 09:53:25;;;;;;;9.30;2.35;;;17.40;99.90;;;;;;5061427;28;20078;-71
2023/09/19 09:56:05;;;;;;;10.73;3.13;;;17.30;99.90;;;;;;5059742;28;20409;-73
2023/09/19 09:58:34;;;;;;;11.30;3.28;;;17.30;99.90;;;;;;5060078;28;20031;-71
2023/09/19 10:01:08;;;;;;;18.60;5.38;;;17.20;99.90;;;;;;5059674;28;20036;-74
2023/09/19 10:03:43;;;;;;;13.95;3.17;;;17.10;99.90;;;;;;5059544;28;20025;-71
2023/09/19 10:09:11;;;;;;;10.50;2.30;;;17.10;99.90;;;;;;5061423;28;20036;-71
2023/09/19 10:11:45;;;;;;;13.07;2.63;;;17.10;99.90;;;;;;5061046;28;20747;-71
2023/09/19 10:14:16;;;;;;;8.88;2.08;;;17.10;99.90;;;;;;5061497;28;20071;-75
2023/09/19 10:16:47;;;;;;;15.52;2.25;;;17.10;99.90;;;;;;5060419;28;20032;-77
2023/09/19 10:19:22;;;;;;;11.35;2.10;;;17.00;99.90;;;;;;5059209;28;20021;-74
2023/09/19 10:21:50;;;;;;;17.88;2.40;;;17.00;99.90;;;;;;5059798;28;20127;-73
2023/09/19 10:24:17;;;;;;;13.75;2.80;;;17.00;99.90;;;;;;5060352;28;20445;-71
2023/09/19 10:26:45;;;;;;;9.60;2.20;;;17.00;99.90;;;;;;5060911;28;20024;-72
2023/09/19 10:29:14;;;;;;;22.55;4.25;;;17.00;99.90;;;;;;5060420;28;20057;-73
2023/09/19 10:31:47;;;;;;;12.38;2.50;;;17.00;99.90;;;;;;5059380;28;20428;-76
2023/09/19 10:34:16;;;;;;;9.27;2.17;;;17.10;99.90;;;;;;5059822;28;20021;-74
2023/09/19 10:36:46;;;;;;;13.43;2.65;;;17.10;99.90;;;;;;5058875;28;20051;-74
2023/09/19 10:39:21;;;;;;;9.10;2.50;;;17.10;99.90;;;;;;5058611;28;20029;-71
2023/09/19 10:41:58;;;;;;;7.22;2.25;;;17.10;99.90;;;;;;5060824;28;20063;-73
2023/09/19 10:44:25;;;;;;;15.57;3.20;;;17.20;99.90;;;;;;5060883;28;20085;-73
2023/09/19 10:46:52;;;;;;;8.98;2.47;;;17.30;99.90;;;;;;5060217;28;20025;-75
2023/09/19 10:49:19;;;;;;;17.00;2.50;;;17.40;99.90;;;;;;5060732;28;20811;-70
2023/09/19 10:51:49;;;;;;;15.57;2.55;;;17.60;99.90;;;;;;5058914;28;20017;-73
2023/09/19 10:54:18;;;;;;;11.63;2.53;;;17.70;99.90;;;;;;5058845;28;20086;-76
2023/09/19 10:56:51;;;;;;;19.45;3.20;;;17.80;99.90;;;;;;5059750;28;20481;-76
2023/09/19 10:59:19;;;;;;;15.30;3.25;;;17.90;99.90;;;;;;5060555;28;20081;-73
2023/09/19 11:01:56;;;;;;;16.50;3.42;;;17.90;99.90;;;;;;5060646;28;20036;-75
2023/09/19 11:04:27;;;;;;;16.30;3.15;;;17.90;99.90;;;;;;5060041;28;20556;-73
2023/09/19 11:07:10;;;;;;;11.93;2.97;;;18.00;99.90;;;;;;5060107;28;20428;-72
2023/09/19 11:09:48;;;;;;;13.02;2.60;;;18.10;99.90;;;;;;5061276;28;20024;-73
2023/09/19 11:12:40;;;;;;;14.27;2.95;;;18.20;99.90;;;;;;5058808;28;20029;-75
2023/09/19 11:15:12;;;;;;;10.68;2.67;;;18.30;99.90;;;;;;5057457;28;20025;-75
2023/09/19 11:17:42;;;;;;;17.15;3.05;;;18.40;99.90;;;;;;5058343;28;20021;-71
2023/09/19 11:22:53;;;;;;;11.23;2.70;;;18.60;99.90;;;;;;5059830;28;20031;-74
2023/09/19 11:25:30;;;;;;;10.98;2.90;;;18.60;99.90;;;;;;5059363;28;20039;-73
2023/09/19 11:28:21;;;;;;;9.25;2.65;;;18.70;99.90;;;;;;5059027;28;20414;-73
2023/09/19 11:30:55;;;;;;;13.10;3.15;;;18.80;99.90;;;;;;5062254;28;20032;-74
2023/09/19 11:33:33;;;;;;;11.80;3.10;;;18.90;99.90;;;;;;5062435;28;20024;-73
2023/09/19 11:36:00;;;;;;;11.48;2.45;;;18.90;99.90;;;;;;5063900;28;20049;-70
2023/09/19 11:41:38;;;;;;;10.00;2.70;;;18.90;99.90;;;;;;5064146;28;20041;-70
2023/09/19 11:44:06;;;;;;;8.45;2.40;;;19.00;99.90;;;;;;5066114;28;20033;-72
2023/09/19 11:46:54;;;;;;;9.27;2.47;;;19.10;99.90;;;;;;5064135;28;20061;-73
2023/09/19 11:49:29;;;;;;;13.02;2.92;;;19.10;99.90;;;;;;5062515;28;20032;-70
2023/09/19 11:51:57;;;;;;;9.50;2.17;;;19.20;99.90;;;;;;5062791;28;20025;-71
2023/09/19 11:54:24;;;;;;;9.63;2.53;;;19.10;99.90;;;;;;5063731;28;20024;-71
2023/09/19 11:56:51;;;;;;;13.02;2.78;;;19.10;99.90;;;;;;5064015;28;20362;-74
2023/09/19 11:59:24;;;;;;;7.47;2.30;;;19.00;99.90;;;;;;5064341;28;20037;-72
2023/09/19 12:01:57;;;;;;;10.90;2.22;;;18.80;99.90;;;;;;5063545;28;20104;-72
2023/09/19 12:04:43;;;;;;;10.45;2.65;;;18.80;99.90;;;;;;5063759;28;20017;-73
2023/09/19 12:07:16;;;;;;;10.25;2.33;;;18.80;99.90;;;;;;5064212;28;20037;-72
2023/09/19 12:09:44;;;;;;;7.10;1.85;;;18.90;99.90;;;;;;5063474;28;20794;-74
2023/09/19 12:12:16;;;;;;;11.93;2.58;;;19.00;99.90;;;;;;5062658;28;20080;-72
2023/09/19 12:14:48;;;;;;;9.68;2.25;;;19.10;99.90;;;;;;5063879;28;20029;-73
2023/09/19 12:17:14;;;;;;;14.05;3.13;;;19.10;99.90;;;;;;5063398;28;20013;-71
2023/09/19 12:19:49;;;;;;;12.30;2.22;;;19.10;99.90;;;;;;5063347;28;20044;-72
2023/09/19 12:22:17;;;;;;;15.38;2.83;;;19.10;99.90;;;;;;5063657;28;20100;-72
2023/09/19 12:24:44;;;;;;;11.63;2.70;;;19.20;99.90;;;;;;5062570;28;20059;-74
2023/09/19 12:27:11;;;;;;;10.60;2.53;;;19.30;99.90;;;;;;5062566;28;20393;-72
2023/09/19 12:29:59;;;;;;;9.20;2.63;;;19.40;99.90;;;;;;5062234;28;20028;-72
2023/09/19 12:32:40;;;;;;;11.50;2.38;;;19.50;99.90;;;;;;5063735;28;20427;-71
2023/09/19 12:35:12;;;;;;;8.27;2.53;;;19.70;99.90;;;;;;5063301;28;20045;-76
2023/09/19 12:37:53;;;;;;;16.85;2.80;;;19.70;99.90;;;;;;5062334;28;20020;-73
2023/09/19 12:40:27;;;;;;;9.95;2.47;;;19.60;99.90;;;;;;5062682;28;20444;-71
2023/09/19 12:42:58;;;;;;;12.95;2.83;;;19.40;99.90;;;;;;5063126;28;20067;-72
2023/09/19 12:45:24;;;;;;;11.32;2.75;;;19.40;99.90;;;;;;5063163;28;20025;-73
2023/09/19 12:48:21;;;;;;;15.50;2.67;;;19.50;99.90;;;;;;5063183;28;20029;-71
2023/09/19 12:51:12;;;;;;;14.25;2.72;;;19.60;99.90;;;;;;5061977;28;20013;-74
2023/09/19 12:53:42;;;;;;;12.73;2.67;;;19.60;99.90;;;;;;5063397;28;20056;-72
2023/09/19 12:56:09;;;;;;;10.48;2.58;;;19.60;99.90;;;;;;5062473;28;20059;-73
2023/09/19 12:59:00;;;;;;;8.45;2.45;;;19.80;99.90;;;;;;5063292;28;20092;-70
2023/09/19 13:01:27;;;;;;;14.55;2.83;;;20.10;99.90;;;;;;5063223;28;20462;-72
2023/09/19 13:04:18;;;;;;;15.32;2.60;;;20.20;99.90;;;;;;5062294;28;20021;-72
2023/09/19 13:06:49;;;;;;;11.98;2.78;;;20.50;99.90;;;;;;5063034;28;20049;-72